Meteorología y climatología de Navarra
Datos de la estación - Meteo Navarra

Estación de Tudela (Montes del Cierzo) GN

Altitud 314 m.


Datos desde el 12/09/2019 hasta el 13/09/2019 en horario solar
Los datos son PROVISIONALES

Anterior Página 1 de 1 Siguiente Descargar: Formato para Excel 2000 o superior   Formato csv   Formato para OpenOffice Calc
Fecha Temperatura Humedad relativa Radiación global Insolación Precipitación Vel. viento 10 m Vel. viento 10 m Dir. viento 10 m
ºC % W/m² s l/m² m/s km/h º
12/09/2019 0:00 15.1 67 0.0 0 0.0 4.2 15.3 309
12/09/2019 0:10 15.0 67 0.0 0 0.0 5.3 19.0 306
12/09/2019 0:20 15.0 67 0.0 0 0.0 5.2 18.8 303
12/09/2019 0:30 15.0 67 0.0 0 0.0 4.7 17.1 304
12/09/2019 0:40 14.9 68 0.0 0 0.0 5.3 19.2 305
12/09/2019 0:50 14.8 68 0.0 0 0.0 5.1 18.2 306
12/09/2019 1:00 14.8 69 0.0 0 0.0 5.1 18.4 306
12/09/2019 1:10 14.7 69 0.0 0 0.0 4.4 15.8 304
12/09/2019 1:20 14.7 70 0.0 0 0.0 3.9 14.2 302
12/09/2019 1:30 14.5 70 0.0 0 0.0 3.8 13.5 303
12/09/2019 1:40 14.5 71 0.0 0 0.0 4.5 16.3 302
12/09/2019 1:50 14.5 71 0.0 0 0.0 4.2 15.0 301
12/09/2019 2:00 14.3 71 0.0 0 0.0 3.8 13.8 301
12/09/2019 2:10 14.2 71 0.0 0 0.0 3.8 13.6 301
12/09/2019 2:20 14.1 72 0.0 0 0.0 4.0 14.4 304
12/09/2019 2:30 14.1 72 0.0 0 0.0 3.9 14.0 303
12/09/2019 2:40 13.9 73 0.0 0 0.0 3.8 13.6 301
12/09/2019 2:50 13.9 73 0.0 0 0.0 3.3 12.0 299
12/09/2019 3:00 13.7 74 0.0 0 0.0 3.1 11.1 297
12/09/2019 3:10 13.6 74 0.0 0 0.0 3.0 10.9 302
12/09/2019 3:20 13.6 74 0.0 0 0.0 3.5 12.5 306
12/09/2019 3:30 13.6 74 0.0 0 0.0 3.5 12.5 306
12/09/2019 3:40 13.6 74 0.0 0 0.0 3.2 11.6 309
12/09/2019 3:50 13.4 75 0.0 0 0.0 2.7 9.6 315
12/09/2019 4:00 13.3 76 0.0 0 0.0 2.0 7.3 314
12/09/2019 4:10 13.0 77 0.0 0 0.0 1.8 6.4 314
12/09/2019 4:20 12.7 79 0.0 0 0.0 2.0 7.2 319
12/09/2019 4:30 12.5 80 0.0 0 0.0 2.6 9.2 319
12/09/2019 4:40 12.6 80 0.0 0 0.0 2.9 10.6 319
12/09/2019 4:50 12.6 80 0.0 0 0.0 2.7 9.5 318
12/09/2019 5:00 12.5 80 0.0 0 0.0 2.3 8.3 314
12/09/2019 5:10 12.5 80 0.0 0 0.0 2.6 9.3 314
12/09/2019 5:20 12.5 80 0.0 0 0.0 2.7 9.7 310
12/09/2019 5:30 12.4 80 0.0 0 0.0 2.8 10.2 306
12/09/2019 5:40 12.3 80 0.0 0 0.0 2.5 9.0 296
12/09/2019 5:50 12.1 81 0.0 0 0.0 2.7 9.7 296
12/09/2019 6:00 12.1 82 6.9 0 0.0 2.8 9.9 305
12/09/2019 6:10 12.4 81 30.6 282 0.0 2.7 9.6 309
12/09/2019 6:20 13.1 78 52.8 600 0.0 2.8 10.1 313
12/09/2019 6:30 13.7 76 78.2 596 0.0 3.3 11.7 321
12/09/2019 6:40 14.1 75 109.4 600 0.0 3.4 12.2 317
12/09/2019 6:50 14.4 74 139.2 600 0.0 3.3 11.7 324
12/09/2019 7:00 14.7 74 169.7 600 0.0 3.1 11.0 316
12/09/2019 7:10 15.3 72 201.7 600 0.0 2.8 10.2 319
12/09/2019 7:20 15.9 70 234.9 600 0.0 3.2 11.5 322
12/09/2019 7:30 16.4 68 268.3 600 0.0 3.2 11.4 320
12/09/2019 7:40 17.0 66 301.7 600 0.0 3.1 11.3 325
12/09/2019 7:50 17.2 65 335.9 600 0.0 3.5 12.7 324
12/09/2019 8:00 17.6 64 369.3 600 0.0 3.8 13.5 326
12/09/2019 8:10 17.8 62 401.7 600 0.0 4.7 17.0 326
12/09/2019 8:20 18.1 61 433.6 600 0.0 4.2 15.0 324
12/09/2019 8:30 18.6 59 464.7 600 0.0 4.2 15.1 321
12/09/2019 8:40 19.2 57 493.5 600 0.0 3.7 13.4 325
12/09/2019 8:50 19.6 55 521.5 600 0.0 3.9 14.1 325
12/09/2019 9:00 19.8 53 547.2 600 0.0 4.2 15.0 328
12/09/2019 9:10 20.0 53 576.9 600 0.0 4.0 14.4 326
12/09/2019 9:20 20.1 52 600.4 600 0.0 4.1 14.8 331
12/09/2019 9:30 20.4 52 628.1 600 0.0 3.8 13.6 333
12/09/2019 9:40 20.6 51 651.6 600 0.0 3.6 13.0 323
12/09/2019 9:50 21.1 50 674.2 600 0.0 3.5 12.6 329
12/09/2019 10:00 21.3 48 694.7 600 0.0 3.8 13.7 322
12/09/2019 10:10 21.3 48 713.1 600 0.0 3.3 12.0 329
12/09/2019 10:20 21.9 46 730.3 600 0.0 3.3 12.0 331
12/09/2019 10:30 22.4 45 746.0 600 0.0 2.8 10.2 332
12/09/2019 10:40 22.8 43 761.3 600 0.0 2.8 10.1 333
12/09/2019 10:50 23.0 44 776.2 600 0.0 2.9 10.5 345
12/09/2019 11:00 23.2 44 769.9 600 0.0 2.5 8.9 337
12/09/2019 11:10 23.6 42 808.0 600 0.0 2.2 7.7 348
12/09/2019 11:20 23.9 42 799.1 600 0.0 2.4 8.6 358
12/09/2019 11:30 24.0 42 803.0 600 0.0 2.4 8.7 353
12/09/2019 11:40 24.4 40 814.0 600 0.0 2.2 8.0 0
12/09/2019 11:50 24.5 40 820.0 600 0.0 2.4 8.6 3
12/09/2019 12:00 24.9 39 819.0 600 0.0 1.8 6.4 347
12/09/2019 12:10 25.3 37 817.0 600 0.0 1.7 6.0 5
12/09/2019 12:20 25.2 37 817.0 600 0.0 1.8 6.6 22
12/09/2019 12:30 25.6 37 813.0 600 0.0 1.2 4.4 333
12/09/2019 12:40 26.5 36 807.0 600 0.0 1.5 5.5 336
12/09/2019 12:50 26.8 34 797.4 600 0.0 0.5 1.9 291
12/09/2019 13:00 26.5 35 788.4 600 0.0 1.0 3.7 345
12/09/2019 13:10 26.9 34 778.1 600 0.0 0.5 1.9 151
12/09/2019 13:20 27.1 35 768.7 600 0.0 1.9 6.7 103
12/09/2019 13:30 27.3 35 756.3 600 0.0 1.3 4.7 96
12/09/2019 13:40 27.4 33 742.0 600 0.0 0.9 3.4 88
12/09/2019 13:50 27.5 33 727.6 600 0.0 2.2 8.0 44
12/09/2019 14:00 27.6 35 712.6 600 0.0 1.6 5.7 106
12/09/2019 14:10 27.7 34 694.9 600 0.0 1.4 5.0 103
12/09/2019 14:20 27.8 32 677.8 600 0.0 1.0 3.5 106
12/09/2019 14:30 28.4 30 657.1 600 0.0 0.8 2.8 9
12/09/2019 14:40 28.6 31 632.3 600 0.0 0.4 1.4 94
12/09/2019 14:50 28.7 31 606.9 600 0.0 1.3 4.5 349
12/09/2019 15:00 28.7 30 579.9 600 0.0 1.6 5.8 355
12/09/2019 15:10 28.8 28 553.1 600 0.0 1.5 5.4 22
12/09/2019 15:20 28.7 30 523.6 600 0.0 1.6 5.8 4
12/09/2019 15:30 29.0 29 494.1 600 0.0 1.3 4.5 338
12/09/2019 15:40 29.2 29 463.4 600 0.0 1.0 3.7 22
12/09/2019 15:50 28.7 30 433.4 600 0.0 1.4 5.0 119
12/09/2019 16:00 28.2 30 401.9 600 0.0 1.2 4.2 163
12/09/2019 16:10 28.4 30 368.3 600 0.0 1.0 3.7 181
12/09/2019 16:20 28.7 30 333.1 600 0.0 1.0 3.6 226
12/09/2019 16:30 28.9 29 301.2 600 0.0 1.2 4.2 250
12/09/2019 16:40 29.3 28 266.8 600 0.0 1.3 4.7 236
12/09/2019 16:50 28.9 29 231.9 600 0.0 1.7 6.0 225
12/09/2019 17:00 28.2 32 199.8 600 0.0 1.5 5.5 228
12/09/2019 17:10 27.5 33 163.8 600 0.0 1.7 6.2 227
12/09/2019 17:20 27.2 33 68.7 34 0.0 1.2 4.3 219
12/09/2019 17:30 26.7 37 34.4 0 0.0 0.9 3.3 218
12/09/2019 17:40 26.2 37 29.9 0 0.0 0.9 3.1 222
12/09/2019 17:50 25.7 38 24.6 0 0.0 0.6 2.1 212
12/09/2019 18:00 25.4 37 17.9 0 0.0 0.9 3.2 213
12/09/2019 18:10 25.1 40 0.0 0 0.0 1.4 5.0 204
12/09/2019 18:20 24.2 42 0.0 0 0.0 1.4 5.0 205
12/09/2019 18:30 23.4 45 0.0 0 0.0 1.7 6.1 211
12/09/2019 18:40 22.2 50 0.0 0 0.0 2.0 7.2 228
12/09/2019 18:50 22.3 49 0.0 0 0.0 0.8 2.9 265
12/09/2019 19:00 22.5 45 0.0 0 0.0 0.7 2.6 267
12/09/2019 19:10 22.8 44 0.0 0 0.0 1.1 4.0 303
12/09/2019 19:20 22.0 49 0.0 0 0.0 1.4 5.0 312
12/09/2019 19:30 21.7 48 0.0 0 0.0 2.6 9.2 322
12/09/2019 19:40 22.5 44 0.0 0 0.0 3.0 10.6 320
12/09/2019 19:50 22.1 50 0.0 0 0.0 3.2 11.6 330
12/09/2019 20:00 21.7 53 0.0 0 0.0 2.8 10.1 328
12/09/2019 20:10 21.3 55 0.0 0 0.0 3.1 11.1 333
12/09/2019 20:20 20.8 56 0.0 0 0.0 3.5 12.5 333
12/09/2019 20:30 20.7 57 0.0 0 0.0 3.2 11.5 327
12/09/2019 20:40 20.7 56 0.0 0 0.0 2.4 8.8 280
12/09/2019 20:50 19.7 61 0.0 0 0.0 2.6 9.4 263
12/09/2019 21:00 19.9 57 0.0 0 0.0 2.6 9.3 292
12/09/2019 21:10 20.1 57 0.0 0 0.0 2.2 8.0 291
12/09/2019 21:20 19.7 58 0.0 0 0.0 2.1 7.6 277
12/09/2019 21:30 19.1 60 0.0 0 0.0 2.6 9.4 271
12/09/2019 21:40 19.1 60 0.0 0 0.0 3.0 10.9 271
12/09/2019 21:50 19.3 59 0.0 0 0.0 3.2 11.5 282
12/09/2019 22:00 19.3 60 0.0 0 0.0 2.9 10.5 280
12/09/2019 22:10 19.1 60 0.0 0 0.0 2.6 9.3 289
12/09/2019 22:20 19.1 61 0.0 0 0.0 2.7 9.9 290
12/09/2019 22:30 19.1 61 0.0 0 0.0 3.0 10.7 299
12/09/2019 22:40 19.1 61 0.0 0 0.0 2.8 10.1 294
12/09/2019 22:50 18.9 62 0.0 0 0.0 3.0 10.7 301
12/09/2019 23:00 19.3 61 0.0 0 0.0 3.3 11.9 308
12/09/2019 23:10 19.3 60 0.0 0 0.0 3.0 10.8 312
12/09/2019 23:20 19.3 61 0.0 0 0.0 3.1 11.2 326
12/09/2019 23:30 18.9 62 0.0 0 0.0 2.3 8.2 320
12/09/2019 23:40 18.5 63 0.0 0 0.0 2.0 7.2 307
12/09/2019 23:50 17.9 65 0.0 0 0.0 1.8 6.5 302
Anterior Página 1 de 1 Siguiente

NOTA: Tipo de datos según el color:
   - Valores diarios o 10 minutos correctos
   - Valores diarios calculados a partir de un número de datos 10 minutos menor que 144 y mayor que 120, o de un número de datos semihorarios menor que 48 y mayor que 40 (caso de las estaciones de Riegos de Navarra y del MARM)
   - Valores diez minutos estimados


Contacto        Enlaces        Aviso legal